Bookmark and Share
Track history (hours):
 

Grandeur Of The Seas

Operator: Royal Caribbean Cruises Ltd

Last reported at 2014-Apr-22 10:00 UTC. Time now 2014-Apr-23 13:00 UTC.
Position N 26°18' W 078°48'.

Type: Passenger vessel. MMSI: 311315000.

Wind from 020 at 14 knots

Waves 0.5 meters (2 feet)

Barometer 1004.0 mb
Air temperature 22.5 ° C
Visibility: greater than 10.8 NM
Dewpoint 18.8 ° C
Water temperature 27.0 ° C

NotesDate/timePositionNaut miles runAvg speedWind from/ knotsBaromVisibWave heightAir tempDewpointWater temp
2014-Apr-22 10:00N 26°18' W 078°48'156 6.5 020 / 141004.010.8 0.522.518.827.0
2014-Apr-21 10:00N 28°48' W 079°36'6321.1 340 / 231006.0 5.4 3.520.017.226.0
2014-Apr-21 07:00N 29°30' W 078°42'57517.7 340 / 251005.0 5.4 3.021.017.225.0
2014-Apr-19 22:33N 38°54' W 076°24'1514.7
2014-Apr-19 21:34N 39°08' W 076°24'1010.4
2014-Apr-19 20:34N 39°15' W 076°34'2 1.6
2014-Apr-19 19:33N 39°16' W 076°36'0 0.0
2014-Apr-19 18:33N 39°16' W 076°36'0 0.0
2014-Apr-19 17:33N 39°16' W 076°36'0 0.0
2014-Apr-19 16:33N 39°16' W 076°36'0 0.0
2014-Apr-19 15:33N 39°16' W 076°36'0 0.0
2014-Apr-19 14:33N 39°16' W 076°36'0 0.0
2014-Apr-19 13:25N 39°16' W 076°36'0 0.0
2014-Apr-19 12:33N 39°16' W 076°36'0 0.0
2014-Apr-19 11:33N 39°16' W 076°36'1 0.6
2014-Apr-19 10:33N 39°15' W 076°35'7 7.2
2014-Apr-19 09:33N 39°11' W 076°28'1211.8
2014-Apr-19 08:33N 39°00' W 076°23'10815.3
2014-Apr-19 01:31N 37°13' W 076°09'1815.8
2014-Apr-19 00:24N 36°57' W 075°58'3110.8
2014-Apr-18 21:33N 36°33' W 075°35'1514.7
2014-Apr-18 20:33N 36°20' W 075°27'3515.0
2014-Apr-18 18:13N 35°48' W 075°09'17714.5
2014-Apr-18 06:00N 33°00' W 076°18'23414.6 070 / 251016.0 5.4 4.020.014.426.0
2014-Apr-17 14:00N 29°06' W 076°30'12015.1 060 / 311015.0 2.2 2.520.015.326.0
2014-Apr-17 06:00N 27°06' W 076°42'4816.1 100 / 101010.010.8 1.023.522.526.0
2014-Apr-17 03:00N 26°18' W 076°48'68 3.4 130 / 131010.010.8 1.026.023.226.0
2014-Apr-16 07:00N 25°18' W 077°24'165 6.9 170 / 151005.010.8 0.525.023.626.0
2014-Apr-15 07:00N 27°18' W 079°30'268 9.6 150 / 201003.0 5.4 1.525.022.927.0
2014-Apr-14 03:00N 31°12' W 077°00'33920.1 130 / 311012.010.8 1.021.016.426.0
2014-Apr-13 10:09N 36°44' W 075°42'810.3
2014-Apr-13 09:24N 36°50' W 075°48'910.2
2014-Apr-13 08:33N 36°55' W 075°57'1514.4
2014-Apr-13 07:30N 37°07' W 076°08'1818.5
2014-Apr-13 06:33N 37°25' W 076°05'1917.5
2014-Apr-13 05:26N 37°43' W 076°12'1718.3
2014-Apr-13 04:30N 38°00' W 076°13'1919.2
2014-Apr-13 03:32N 38°19' W 076°18'2118.7
2014-Apr-13 02:25N 38°39' W 076°25'1719.8
2014-Apr-13 01:34N 38°56' W 076°23'1515.0
2014-Apr-13 00:33N 39°10' W 076°26'9 9.2
2014-Apr-12 23:34N 39°16' W 076°36'0 0.2
2014-Apr-12 22:31N 39°16' W 076°36'0 0.0
2014-Apr-12 21:31N 39°16' W 076°36'0 0.0
2014-Apr-12 20:31N 39°16' W 076°36'0 0.0
2014-Apr-12 19:28N 39°16' W 076°36'0 0.0
2014-Apr-12 18:31N 39°16' W 076°36'0 0.0
2014-Apr-12 17:31N 39°16' W 076°36'0 0.0
2014-Apr-12 16:31N 39°16' W 076°36'0 0.0
2014-Apr-12 15:31N 39°16' W 076°36'0 0.0
2014-Apr-12 14:31N 39°16' W 076°36'0 0.0
2014-Apr-12 13:31N 39°16' W 076°36'0 0.0
2014-Apr-12 12:31N 39°16' W 076°36'0 0.0
2014-Apr-12 11:31N 39°16' W 076°36'0 0.0
2014-Apr-12 10:31N 39°16' W 076°36'  

Dump ship's entire track history

sailing weather and tide predictions

Grandeur Of The Seas — C6SE3 — position and weather